createdAt,value
2023-02-09T00:02:16.514Z,-3.79
2023-02-09T00:04:44.908Z,-3.81
2023-02-09T00:07:12.922Z,-3.90
2023-02-09T00:09:41.115Z,-3.92
2023-02-09T00:12:28.317Z,-4.00
2023-02-09T00:14:58.289Z,-4.05
2023-02-09T00:17:26.609Z,-4.16
2023-02-09T00:19:56.024Z,-4.22
2023-02-09T00:22:24.263Z,-4.17
2023-02-09T00:24:52.536Z,-4.12
2023-02-09T00:27:21.081Z,-4.14
2023-02-09T00:29:49.590Z,-4.21
2023-02-09T00:32:19.623Z,-4.24
2023-02-09T00:34:48.302Z,-4.25
2023-02-09T00:37:16.934Z,-4.19
2023-02-09T00:39:45.660Z,-4.20
2023-02-09T00:42:15.023Z,-4.24
2023-02-09T00:44:43.315Z,-4.41
2023-02-09T00:47:11.628Z,-4.34
2023-02-09T00:49:41.332Z,-4.38
2023-02-09T00:52:10.120Z,-4.29
2023-02-09T00:54:38.654Z,-4.31
2023-02-09T00:57:06.950Z,-4.41
2023-02-09T00:59:35.923Z,-4.35
2023-02-09T01:02:04.816Z,-4.33
2023-02-09T01:04:33.119Z,-4.34
2023-02-09T01:07:02.757Z,-4.39
2023-02-09T01:09:31.137Z,-4.38
2023-02-09T01:11:59.281Z,-4.41
2023-02-09T01:14:27.394Z,-4.41
2023-02-09T01:16:55.672Z,-4.42
2023-02-09T01:19:23.842Z,-4.44
2023-02-09T01:21:52.111Z,-4.43
2023-02-09T01:24:21.918Z,-4.41
2023-02-09T01:26:50.300Z,-4.51
2023-02-09T01:29:21.436Z,-4.55
2023-02-09T01:31:50.051Z,-4.47
2023-02-09T01:34:19.928Z,-4.50
2023-02-09T01:36:48.496Z,-4.50
2023-02-09T01:39:16.679Z,-4.56
2023-02-09T01:41:46.518Z,-4.55
2023-02-09T01:44:52.385Z,-4.50
2023-02-09T01:47:21.411Z,-4.53
2023-02-09T01:49:52.100Z,-4.57
2023-02-09T01:52:24.918Z,-4.61
2023-02-09T01:54:57.536Z,-4.68
2023-02-09T01:57:32.659Z,-4.75
2023-02-09T02:00:04.936Z,-4.77
2023-02-09T02:02:33.455Z,-4.77
2023-02-09T02:05:01.930Z,-4.71
2023-02-09T02:07:37.164Z,-4.72
2023-02-09T02:10:06.224Z,-4.76
2023-02-09T02:12:37.210Z,-4.80
2023-02-09T02:15:05.767Z,-4.86
2023-02-09T02:17:48.393Z,-4.94
2023-02-09T02:21:01.415Z,-4.98
2023-02-09T02:23:37.535Z,-4.90
2023-02-09T02:26:30.665Z,-4.94
2023-02-09T02:29:41.650Z,-5.10
2023-02-09T02:32:20.804Z,-5.07
2023-02-09T02:34:55.768Z,-5.08
2023-02-09T02:37:42.144Z,-5.13
2023-02-09T02:40:23.023Z,-5.16
2023-02-09T02:42:57.157Z,-5.22
2023-02-09T02:45:35.722Z,-5.19
2023-02-09T02:48:14.866Z,-5.24
2023-02-09T02:50:49.002Z,-5.29
2023-02-09T02:53:19.547Z,-5.36
2023-02-09T02:55:50.713Z,-5.36
2023-02-09T02:58:23.308Z,-5.38
2023-02-09T03:00:53.781Z,-5.38
2023-02-09T03:03:26.245Z,-5.41
2023-02-09T03:05:55.327Z,-5.40
2023-02-09T03:08:23.588Z,-5.49
2023-02-09T03:10:52.378Z,-5.48
2023-02-09T03:13:38.557Z,-5.49
2023-02-09T03:16:20.036Z,-5.49
2023-02-09T03:19:01.935Z,-5.52
2023-02-09T03:21:42.979Z,-5.55
2023-02-09T03:24:21.037Z,-5.62
2023-02-09T03:26:53.001Z,-5.68
2023-02-09T03:29:25.206Z,-5.73
2023-02-09T03:31:53.480Z,-5.77
2023-02-09T03:34:23.237Z,-5.72
2023-02-09T03:36:55.444Z,-5.80
2023-02-09T03:39:23.622Z,-5.74
2023-02-09T03:41:51.797Z,-5.80
2023-02-09T03:44:29.237Z,-5.83
2023-02-09T03:46:59.568Z,-5.81
2023-02-09T03:49:31.647Z,-5.87
2023-02-09T03:52:00.819Z,-5.90
2023-02-09T03:54:29.517Z,-5.92
2023-02-09T03:56:58.235Z,-5.94
2023-02-09T03:59:26.920Z,-5.96
2023-02-09T04:01:56.488Z,-6.06
2023-02-09T04:04:26.414Z,-6.05
2023-02-09T04:06:56.216Z,-6.05
2023-02-09T04:09:24.710Z,-6.05
2023-02-09T04:11:53.229Z,-6.04
2023-02-09T04:14:21.718Z,-6.04
2023-02-09T04:16:50.272Z,-6.06
2023-02-09T04:19:18.527Z,-6.08
2023-02-09T04:21:46.898Z,-6.09
2023-02-09T04:24:16.675Z,-6.12
2023-02-09T04:26:44.822Z,-6.08
2023-02-09T04:29:12.954Z,-6.11
2023-02-09T04:31:41.151Z,-6.06
2023-02-09T04:34:09.523Z,-6.06
2023-02-09T04:36:37.826Z,-6.07
2023-02-09T04:39:06.160Z,-6.10
2023-02-09T04:41:35.780Z,-6.13
2023-02-09T04:44:03.955Z,-6.15
2023-02-09T04:46:31.997Z,-6.14
2023-02-09T04:49:01.040Z,-6.17
2023-02-09T04:51:29.202Z,-6.19
2023-02-09T04:53:57.302Z,-6.20
2023-02-09T04:56:25.311Z,-6.24
2023-02-09T04:59:12.351Z,-6.29
2023-02-09T05:01:40.616Z,-6.35
2023-02-09T05:04:08.794Z,-6.38
2023-02-09T05:06:36.857Z,-6.38
2023-02-09T05:09:05.033Z,-6.36
2023-02-09T05:11:33.230Z,-6.37
2023-02-09T05:14:02.901Z,-6.39
2023-02-09T05:16:31.154Z,-6.39
2023-02-09T05:18:59.445Z,-6.39
2023-02-09T05:21:27.679Z,-6.38
2023-02-09T05:23:55.700Z,-6.38
2023-02-09T05:26:23.961Z,-6.38
2023-02-09T05:28:52.070Z,-6.40
2023-02-09T05:31:21.699Z,-6.42
2023-02-09T05:33:50.080Z,-6.41
2023-02-09T05:36:18.253Z,-6.39
2023-02-09T05:38:46.406Z,-6.32
2023-02-09T05:41:36.317Z,-6.33
2023-02-09T05:44:04.832Z,-6.36
2023-02-09T05:46:34.381Z,-6.38
2023-02-09T05:49:02.743Z,-6.28
2023-02-09T05:51:30.868Z,-6.29
2023-02-09T05:53:58.981Z,-6.24
2023-02-09T05:56:27.293Z,-6.21
2023-02-09T05:58:55.586Z,-6.18
2023-02-09T06:01:23.807Z,-6.14
2023-02-09T06:03:53.460Z,-6.14
2023-02-09T06:06:21.643Z,-6.12
2023-02-09T06:08:50.174Z,-6.03
2023-02-09T06:11:19.357Z,-5.99
2023-02-09T06:13:47.672Z,-5.89
2023-02-09T06:16:15.861Z,-5.82
2023-02-09T06:18:44.063Z,-5.73
2023-02-09T06:21:13.844Z,-5.61
2023-02-09T06:23:41.933Z,-5.61
2023-02-09T06:26:11.736Z,-5.59
2023-02-09T06:28:40.735Z,-5.55
2023-02-09T06:31:09.213Z,-5.48
2023-02-09T06:33:38.411Z,-5.45
2023-02-09T06:36:08.955Z,-5.42
2023-02-09T06:38:39.280Z,-5.38
2023-02-09T06:41:08.010Z,-5.36
2023-02-09T06:43:36.666Z,-5.28
2023-02-09T06:46:08.236Z,-5.19
2023-02-09T06:48:36.482Z,-5.09
2023-02-09T06:51:09.211Z,-5.00
2023-02-09T06:53:39.959Z,-4.87
2023-02-09T06:56:09.397Z,-4.75
2023-02-09T06:58:38.532Z,-4.72
2023-02-09T07:01:08.693Z,-4.67
2023-02-09T07:03:36.921Z,-4.58
2023-02-09T07:06:06.912Z,-4.62
2023-02-09T07:08:35.106Z,-4.36
2023-02-09T07:11:05.947Z,-4.29
2023-02-09T07:13:34.473Z,-4.24
2023-02-09T07:16:04.148Z,-4.19
2023-02-09T07:18:32.402Z,-4.17
2023-02-09T07:21:02.165Z,-4.20
2023-02-09T07:23:30.887Z,-4.02
2023-02-09T07:26:05.233Z,-3.94
2023-02-09T07:28:33.681Z,-3.86
2023-02-09T07:31:05.749Z,-3.82
2023-02-09T07:33:34.772Z,-3.80
2023-02-09T07:36:05.914Z,-3.74
2023-02-09T07:38:34.184Z,-3.67
2023-02-09T07:41:02.921Z,-3.65
2023-02-09T07:43:33.357Z,-3.55
2023-02-09T07:46:02.233Z,-3.39
2023-02-09T07:48:30.695Z,-3.28
2023-02-09T07:50:59.270Z,-3.14
2023-02-09T07:53:28.170Z,-3.00
2023-02-09T07:55:56.715Z,-2.98
2023-02-09T07:58:24.957Z,-2.90
2023-02-09T08:00:54.580Z,-2.79
2023-02-09T08:03:28.044Z,-2.72
2023-02-09T08:06:01.821Z,-2.59
2023-02-09T08:08:29.845Z,-2.57
2023-02-09T08:11:00.810Z,-2.61
2023-02-09T08:13:33.256Z,-2.49
2023-02-09T08:16:07.270Z,-2.44
2023-02-09T08:18:40.027Z,-2.22
2023-02-09T08:21:12.155Z,-2.12
2023-02-09T08:23:42.694Z,-2.06
2023-02-09T08:26:14.417Z,-2.09
2023-02-09T08:28:45.084Z,-2.04
2023-02-09T08:31:18.479Z,-2.03
2023-02-09T08:33:48.780Z,-1.83
2023-02-09T08:36:18.288Z,-1.65
2023-02-09T08:38:46.641Z,-1.72
2023-02-09T08:41:20.508Z,-1.50
2023-02-09T08:43:50.170Z,-1.41
2023-02-09T08:46:20.822Z,-1.36
2023-02-09T08:48:49.755Z,-1.35
2023-02-09T08:51:18.352Z,-1.29
2023-02-09T08:53:52.752Z,-1.47
2023-02-09T08:56:21.825Z,-1.35
2023-02-09T08:58:50.968Z,-1.08
2023-02-09T09:01:20.672Z,-1.06
2023-02-09T09:03:49.649Z,-1.21
2023-02-09T09:06:17.791Z,-1.22
2023-02-09T09:08:45.859Z,-0.97
2023-02-09T09:11:14.990Z,-0.81
2023-02-09T09:13:43.458Z,-0.96
2023-02-09T09:16:17.046Z,-0.71
2023-02-09T09:18:46.890Z,-0.59
2023-02-09T09:21:16.386Z,-0.55
2023-02-09T09:23:45.233Z,-0.51
2023-02-09T09:26:13.333Z,-0.56
2023-02-09T09:28:41.435Z,-0.56
2023-02-09T09:31:11.072Z,-0.46
2023-02-09T09:33:39.672Z,-0.36
2023-02-09T09:36:10.160Z,-0.28
2023-02-09T09:38:40.149Z,-0.20
2023-02-09T09:41:20.344Z,-0.28
2023-02-09T09:43:49.302Z,-0.06
2023-02-09T09:46:20.455Z,0.03
2023-02-09T09:48:52.164Z,0.04
2023-02-09T09:51:27.742Z,0.10
2023-02-09T09:53:57.874Z,0.09
2023-02-09T09:56:27.257Z,0.26
2023-02-09T09:58:55.571Z,0.11
2023-02-09T10:01:24.340Z,0.16
2023-02-09T10:03:52.718Z,0.19
2023-02-09T10:06:23.955Z,0.45
2023-02-09T10:08:55.106Z,0.50
2023-02-09T10:11:30.653Z,0.59
2023-02-09T10:13:59.159Z,0.65
2023-02-09T10:16:30.556Z,0.36
2023-02-09T10:19:01.367Z,0.58
2023-02-09T10:21:32.988Z,0.50
2023-02-09T10:24:22.852Z,0.59
2023-02-09T10:27:09.275Z,0.58
2023-02-09T10:29:37.780Z,0.70
2023-02-09T10:32:14.946Z,0.75
2023-02-09T10:34:48.066Z,0.50
2023-02-09T10:37:22.090Z,0.57
2023-02-09T10:39:59.014Z,0.78
2023-02-09T10:42:31.574Z,1.00
2023-02-09T10:45:08.675Z,1.15
2023-02-09T10:47:36.768Z,1.15
2023-02-09T10:50:17.781Z,1.29
2023-02-09T10:53:01.080Z,1.39
2023-02-09T10:55:36.649Z,1.26
2023-02-09T10:58:07.812Z,1.51
2023-02-09T11:00:44.336Z,1.51
2023-02-09T11:03:18.902Z,1.49
2023-02-09T11:05:49.020Z,1.41
2023-02-09T11:08:23.952Z,1.11
2023-02-09T11:11:02.217Z,1.36
2023-02-09T11:13:32.435Z,1.58
2023-02-09T11:16:27.400Z,1.59
2023-02-09T11:19:01.596Z,1.83
2023-02-09T11:21:43.442Z,1.90
2023-02-09T11:24:26.406Z,1.70
2023-02-09T11:27:01.843Z,1.74
2023-02-09T11:29:36.416Z,1.63
2023-02-09T11:32:14.617Z,1.82
2023-02-09T11:35:01.472Z,1.98
2023-02-09T11:37:41.783Z,2.02
2023-02-09T11:40:24.057Z,1.88
2023-02-09T11:43:07.529Z,1.93
2023-02-09T11:45:40.870Z,2.07
2023-02-09T11:48:13.871Z,2.01
2023-02-09T11:50:57.329Z,2.00
2023-02-09T11:53:35.008Z,2.01
2023-02-09T11:56:07.198Z,1.90
2023-02-09T11:58:44.199Z,1.74
2023-02-09T12:01:27.493Z,1.87
2023-02-09T12:04:02.545Z,1.66
2023-02-09T12:06:37.046Z,1.73
2023-02-09T12:09:15.591Z,1.86
2023-02-09T12:11:53.959Z,2.11
2023-02-09T12:14:33.597Z,2.25
2023-02-09T12:17:09.425Z,2.27
2023-02-09T12:19:42.775Z,2.07
2023-02-09T12:22:46.327Z,2.21
2023-02-09T12:25:21.140Z,2.16
2023-02-09T12:28:17.376Z,1.93
2023-02-09T12:31:07.529Z,1.98
2023-02-09T12:33:38.471Z,1.97
2023-02-09T12:36:27.060Z,2.14
2023-02-09T12:39:24.928Z,2.16
2023-02-09T12:42:28.392Z,2.37
2023-02-09T12:44:59.779Z,2.37
2023-02-09T12:47:55.957Z,2.58
2023-02-09T12:50:33.248Z,2.63
2023-02-09T12:53:43.806Z,2.56
2023-02-09T12:56:35.465Z,2.67
2023-02-09T12:59:22.081Z,2.64
2023-02-09T13:02:16.077Z,2.73
2023-02-09T13:05:06.028Z,2.46
2023-02-09T13:07:47.029Z,2.19
2023-02-09T13:10:22.862Z,2.08
2023-02-09T13:12:58.144Z,2.14
2023-02-09T13:15:30.810Z,2.40
2023-02-09T13:18:14.239Z,2.45
2023-02-09T13:21:14.584Z,2.44
2023-02-09T13:23:56.732Z,2.63
2023-02-09T13:26:28.119Z,2.46
2023-02-09T13:29:20.502Z,2.19
2023-02-09T13:32:02.093Z,2.36
2023-02-09T13:34:37.054Z,2.35
2023-02-09T13:37:22.913Z,2.55
2023-02-09T13:39:58.077Z,2.55
2023-02-09T13:42:28.767Z,2.67
2023-02-09T13:44:59.367Z,2.77
2023-02-09T13:47:28.942Z,2.75
2023-02-09T13:50:00.558Z,2.86
2023-02-09T13:52:35.299Z,2.68
2023-02-09T13:55:13.692Z,2.74
2023-02-09T13:57:43.959Z,2.78
2023-02-09T14:00:22.877Z,2.87
2023-02-09T14:02:54.615Z,2.83
2023-02-09T14:05:32.267Z,2.76
2023-02-09T14:08:00.980Z,2.88
2023-02-09T14:10:30.833Z,2.59
2023-02-09T14:13:04.894Z,2.65
2023-02-09T14:15:55.479Z,2.63
2023-02-09T14:18:31.597Z,2.55
2023-02-09T14:21:04.991Z,2.63
2023-02-09T14:23:44.315Z,2.34
2023-02-09T14:26:26.190Z,2.42
2023-02-09T14:29:05.334Z,2.43
2023-02-09T14:31:37.798Z,2.53
2023-02-09T14:34:07.231Z,2.45
2023-02-09T14:36:38.261Z,2.43
2023-02-09T14:39:13.423Z,2.63
2023-02-09T14:41:41.972Z,2.66
2023-02-09T14:44:22.167Z,2.60
2023-02-09T14:46:53.469Z,2.45
2023-02-09T14:49:23.124Z,2.54
2023-02-09T14:52:05.853Z,2.43
2023-02-09T14:54:35.874Z,2.38
2023-02-09T14:57:04.804Z,2.20
2023-02-09T14:59:32.858Z,2.20
2023-02-09T15:02:01.510Z,2.15
2023-02-09T15:04:30.011Z,2.32
2023-02-09T15:07:03.142Z,2.36
2023-02-09T15:09:36.393Z,2.29
2023-02-09T15:12:08.082Z,2.20
2023-02-09T15:14:47.849Z,2.09
2023-02-09T15:17:19.534Z,2.16
2023-02-09T15:19:48.983Z,2.07
2023-02-09T15:22:20.277Z,1.98
2023-02-09T15:24:50.282Z,1.87
2023-02-09T15:27:37.607Z,1.82
2023-02-09T15:30:12.099Z,1.80
2023-02-09T15:32:40.353Z,1.61
2023-02-09T15:35:09.782Z,1.54
2023-02-09T15:37:41.194Z,1.58
2023-02-09T15:40:44.185Z,1.49
2023-02-09T15:43:31.836Z,1.44
2023-02-09T15:46:18.035Z,1.30
2023-02-09T15:48:46.601Z,1.24
2023-02-09T15:51:16.425Z,1.25
2023-02-09T15:53:48.173Z,1.22
2023-02-09T15:56:17.200Z,1.13
2023-02-09T15:58:48.399Z,1.02
2023-02-09T16:01:19.233Z,0.88
2023-02-09T16:03:48.149Z,1.00
2023-02-09T16:06:20.170Z,0.92
2023-02-09T16:08:52.688Z,0.87
2023-02-09T16:11:24.872Z,0.77
2023-02-09T16:13:52.986Z,0.73
2023-02-09T16:16:21.541Z,0.66
2023-02-09T16:18:50.277Z,0.62
2023-02-09T16:21:25.614Z,0.62
2023-02-09T16:23:57.862Z,0.55
2023-02-09T16:26:28.478Z,0.53
2023-02-09T16:28:57.344Z,0.42
2023-02-09T16:31:26.516Z,0.40
2023-02-09T16:33:55.396Z,0.46
2023-02-09T16:36:25.744Z,0.37
2023-02-09T16:38:55.484Z,0.41
2023-02-09T16:41:41.194Z,0.43
2023-02-09T16:44:17.727Z,0.47
2023-02-09T16:46:47.586Z,0.26
2023-02-09T16:49:31.568Z,0.18
2023-02-09T16:52:03.829Z,0.03
2023-02-09T16:54:39.260Z,-0.01
2023-02-09T16:57:07.476Z,-0.10
2023-02-09T16:59:37.954Z,-0.15
2023-02-09T17:02:18.004Z,-0.20
2023-02-09T17:04:48.771Z,-0.12
2023-02-09T17:07:17.032Z,-0.15
2023-02-09T17:09:47.182Z,-0.22
2023-02-09T17:12:15.803Z,-0.33
2023-02-09T17:14:44.333Z,-0.44
2023-02-09T17:17:18.177Z,-0.46
2023-02-09T17:19:48.132Z,-0.46
2023-02-09T17:22:18.670Z,-0.63
2023-02-09T17:24:49.324Z,-0.64
2023-02-09T17:27:17.470Z,-0.68
2023-02-09T17:29:45.533Z,-0.60
2023-02-09T17:32:16.878Z,-0.69
2023-02-09T17:34:45.156Z,-0.75
2023-02-09T17:37:16.922Z,-0.85
2023-02-09T17:39:45.423Z,-0.93
2023-02-09T17:42:24.563Z,-0.91
2023-02-09T17:45:02.498Z,-0.90
2023-02-09T17:47:32.005Z,-0.92
2023-02-09T17:50:00.746Z,-0.95
2023-02-09T17:52:29.172Z,-1.05
2023-02-09T17:54:58.168Z,-1.06
2023-02-09T17:57:28.090Z,-1.12
2023-02-09T17:59:58.213Z,-1.15
2023-02-09T18:02:26.609Z,-1.23
2023-02-09T18:04:55.525Z,-1.38
2023-02-09T18:07:23.764Z,-1.34
2023-02-09T18:09:54.572Z,-1.40
2023-02-09T18:12:27.166Z,-1.48
2023-02-09T18:14:57.248Z,-1.63
2023-02-09T18:17:25.673Z,-1.68
2023-02-09T18:19:56.910Z,-1.70
2023-02-09T18:22:25.068Z,-1.68
2023-02-09T18:24:54.488Z,-1.61
2023-02-09T18:27:25.818Z,-1.76
2023-02-09T18:29:56.528Z,-1.71
2023-02-09T18:32:26.521Z,-1.68
2023-02-09T18:34:55.418Z,-1.62
2023-02-09T18:37:23.753Z,-1.75
2023-02-09T18:39:52.339Z,-1.85
2023-02-09T18:42:22.039Z,-1.96
2023-02-09T18:44:50.511Z,-1.89
2023-02-09T18:47:19.349Z,-1.96
2023-02-09T18:49:49.660Z,-2.03
2023-02-09T18:52:19.128Z,-1.99
2023-02-09T18:54:47.932Z,-2.06
2023-02-09T18:57:16.204Z,-2.15
2023-02-09T18:59:47.628Z,-2.09
2023-02-09T19:02:16.813Z,-2.10
2023-02-09T19:04:53.121Z,-2.05
2023-02-09T19:07:21.263Z,-2.05
2023-02-09T19:09:50.474Z,-2.02
2023-02-09T19:12:19.373Z,-2.05
2023-02-09T19:14:49.403Z,-2.02
2023-02-09T19:17:22.751Z,-2.00
2023-02-09T19:19:53.340Z,-2.03
2023-02-09T19:22:23.553Z,-2.01
2023-02-09T19:24:53.431Z,-2.11
2023-02-09T19:27:21.635Z,-2.15
2023-02-09T19:29:55.017Z,-2.10
2023-02-09T19:32:25.405Z,-2.09
2023-02-09T19:34:56.047Z,-2.09
2023-02-09T19:37:24.324Z,-2.18
2023-02-09T19:40:04.945Z,-2.23
2023-02-09T19:42:33.630Z,-2.16
2023-02-09T19:45:03.243Z,-2.18
2023-02-09T19:47:31.404Z,-2.16
2023-02-09T19:50:02.507Z,-2.10
2023-02-09T19:52:31.332Z,-2.10
2023-02-09T19:55:02.916Z,-2.18
2023-02-09T19:57:31.539Z,-2.25
2023-02-09T19:59:59.860Z,-2.41
2023-02-09T20:02:28.108Z,-2.46
2023-02-09T20:04:56.920Z,-2.50
2023-02-09T20:07:26.551Z,-2.50
2023-02-09T20:09:57.365Z,-2.39
2023-02-09T20:12:25.724Z,-2.43
2023-02-09T20:14:54.990Z,-2.41
2023-02-09T20:17:23.296Z,-2.43
2023-02-09T20:19:52.976Z,-2.60
2023-02-09T20:22:21.411Z,-2.58
2023-02-09T20:24:50.992Z,-2.67
2023-02-09T20:27:19.953Z,-2.53
2023-02-09T20:30:07.446Z,-2.57
2023-02-09T20:32:36.856Z,-2.55
2023-02-09T20:35:06.556Z,-2.54
2023-02-09T20:37:36.407Z,-2.54
2023-02-09T20:40:11.168Z,-2.72
2023-02-09T20:42:57.449Z,-2.81
2023-02-09T20:45:43.461Z,-2.80
2023-02-09T20:48:11.579Z,-2.96
2023-02-09T20:50:39.648Z,-2.94
2023-02-09T20:53:07.885Z,-2.85
2023-02-09T20:55:38.087Z,-2.85
2023-02-09T20:58:06.326Z,-2.83
2023-02-09T21:00:34.568Z,-2.82
2023-02-09T21:03:02.783Z,-2.87
2023-02-09T21:05:31.065Z,-2.95
2023-02-09T21:07:59.246Z,-3.00
2023-02-09T21:10:27.319Z,-3.08
2023-02-09T21:12:56.914Z,-2.94
2023-02-09T21:15:24.904Z,-3.07
2023-02-09T21:17:52.978Z,-3.05
2023-02-09T21:20:21.648Z,-3.16
2023-02-09T21:22:50.328Z,-3.28
2023-02-09T21:25:19.548Z,-3.36
2023-02-09T21:27:47.961Z,-3.35
2023-02-09T21:30:17.918Z,-3.33
2023-02-09T21:32:46.096Z,-3.40
2023-02-09T21:35:14.326Z,-3.59
2023-02-09T21:37:43.019Z,-3.62
2023-02-09T21:40:12.722Z,-3.70
2023-02-09T21:42:41.221Z,-3.73
2023-02-09T21:45:10.313Z,-3.73
2023-02-09T21:47:41.560Z,-3.69
2023-02-09T21:50:12.985Z,-3.75
2023-02-09T21:52:41.037Z,-3.67
2023-02-09T21:55:09.846Z,-3.64
2023-02-09T21:57:38.374Z,-3.57
2023-02-09T22:00:09.076Z,-3.49
2023-02-09T22:02:37.515Z,-3.47
2023-02-09T22:05:08.540Z,-3.49
2023-02-09T22:07:37.171Z,-3.47
2023-02-09T22:10:06.407Z,-3.50
2023-02-09T22:12:36.493Z,-3.58
2023-02-09T22:15:04.957Z,-3.55
2023-02-09T22:17:33.092Z,-3.62
2023-02-09T22:20:01.218Z,-3.71
2023-02-09T22:22:30.931Z,-3.75
2023-02-09T22:24:59.199Z,-3.76
2023-02-09T22:27:27.541Z,-3.72
2023-02-09T22:29:55.533Z,-3.73
2023-02-09T22:32:23.900Z,-3.71
2023-02-09T22:34:52.027Z,-3.70
2023-02-09T22:37:20.102Z,-3.76
2023-02-09T22:39:50.088Z,-3.89
2023-02-09T22:42:18.177Z,-3.80
2023-02-09T22:44:46.641Z,-3.93
2023-02-09T22:47:14.735Z,-3.94
2023-02-09T22:49:46.145Z,-3.94
2023-02-09T22:52:14.325Z,-3.87
2023-02-09T22:54:42.452Z,-3.89
2023-02-09T22:57:11.900Z,-3.97
2023-02-09T22:59:40.098Z,-3.94
2023-02-09T23:02:08.274Z,-4.03
2023-02-09T23:04:36.215Z,-4.10
2023-02-09T23:07:05.225Z,-4.10
2023-02-09T23:09:33.487Z,-3.96
2023-02-09T23:12:01.641Z,-4.07
2023-02-09T23:14:31.205Z,-3.96
2023-02-09T23:16:59.805Z,-4.12
2023-02-09T23:19:28.161Z,-4.28
2023-02-09T23:21:56.344Z,-4.40
2023-02-09T23:24:25.276Z,-4.45
2023-02-09T23:26:53.531Z,-4.26
2023-02-09T23:29:22.462Z,-4.11
2023-02-09T23:31:52.249Z,-4.10
2023-02-09T23:34:21.876Z,-4.26
2023-02-09T23:36:50.052Z,-4.35
2023-02-09T23:39:20.359Z,-4.50
2023-02-09T23:41:48.888Z,-4.62
2023-02-09T23:44:16.892Z,-4.68
2023-02-09T23:46:45.822Z,-4.74
2023-02-09T23:49:15.321Z,-4.79
2023-02-09T23:51:45.173Z,-4.75
2023-02-09T23:54:13.236Z,-4.72
2023-02-09T23:56:41.584Z,-4.81
2023-02-09T23:59:12.757Z,-4.82
